sensor_id;sensor_type;location;lat;lon;timestamp;P1;durP1;ratioP1;P2;durP2;ratioP2
35977;SDS011;22056;0.000;0.000;2023-01-13T00:01:20;2.40;;;0.77;;
35977;SDS011;22056;0.000;0.000;2023-01-13T00:03:46;3.55;;;0.90;;
35977;SDS011;22056;0.000;0.000;2023-01-13T00:06:13;3.35;;;0.70;;
35977;SDS011;22056;0.000;0.000;2023-01-13T00:08:40;1.55;;;0.65;;
35977;SDS011;22056;0.000;0.000;2023-01-13T00:11:06;1.58;;;0.65;;
35977;SDS011;22056;0.000;0.000;2023-01-13T00:13:32;3.42;;;1.02;;
35977;SDS011;22056;0.000;0.000;2023-01-13T00:16:06;2.45;;;0.60;;
35977;SDS011;22056;0.000;0.000;2023-01-13T00:18:32;2.42;;;0.70;;
35977;SDS011;22056;0.000;0.000;2023-01-13T00:21:10;2.78;;;0.70;;
35977;SDS011;22056;0.000;0.000;2023-01-13T00:23:37;1.52;;;0.55;;
35977;SDS011;22056;0.000;0.000;2023-01-13T00:26:09;2.67;;;0.75;;
35977;SDS011;22056;0.000;0.000;2023-01-13T00:28:35;1.50;;;0.50;;
35977;SDS011;22056;0.000;0.000;2023-01-13T00:31:08;3.88;;;0.95;;
35977;SDS011;22056;0.000;0.000;2023-01-13T00:33:35;2.72;;;0.50;;
35977;SDS011;22056;0.000;0.000;2023-01-13T00:36:01;1.63;;;0.70;;
35977;SDS011;22056;0.000;0.000;2023-01-13T00:38:31;3.17;;;0.75;;
35977;SDS011;22056;0.000;0.000;2023-01-13T00:41:02;2.35;;;0.60;;
35977;SDS011;22056;0.000;0.000;2023-01-13T00:43:29;1.83;;;0.60;;
35977;SDS011;22056;0.000;0.000;2023-01-13T00:45:56;2.95;;;0.90;;
35977;SDS011;22056;0.000;0.000;2023-01-13T00:48:23;2.65;;;0.60;;
35977;SDS011;22056;0.000;0.000;2023-01-13T00:50:56;2.65;;;0.73;;
35977;SDS011;22056;0.000;0.000;2023-01-13T00:53:23;1.27;;;0.50;;
35977;SDS011;22056;0.000;0.000;2023-01-13T00:55:57;1.85;;;0.60;;
35977;SDS011;22056;0.000;0.000;2023-01-13T00:58:23;1.80;;;0.60;;
35977;SDS011;22056;0.000;0.000;2023-01-13T01:00:49;2.33;;;0.57;;
35977;SDS011;22056;0.000;0.000;2023-01-13T01:03:16;2.58;;;0.82;;
35977;SDS011;22056;0.000;0.000;2023-01-13T01:05:42;2.63;;;0.80;;
35977;SDS011;22056;0.000;0.000;2023-01-13T01:08:08;2.60;;;0.50;;
35977;SDS011;22056;0.000;0.000;2023-01-13T01:10:34;1.70;;;0.60;;
35977;SDS011;22056;0.000;0.000;2023-01-13T01:13:00;1.75;;;0.77;;
35977;SDS011;22056;0.000;0.000;2023-01-13T01:15:26;2.45;;;0.70;;
35977;SDS011;22056;0.000;0.000;2023-01-13T01:17:52;2.72;;;0.68;;
35977;SDS011;22056;0.000;0.000;2023-01-13T01:20:18;1.17;;;0.50;;
35977;SDS011;22056;0.000;0.000;2023-01-13T01:22:45;1.73;;;0.60;;
35977;SDS011;22056;0.000;0.000;2023-01-13T01:25:11;0.90;;;0.50;;
35977;SDS011;22056;0.000;0.000;2023-01-13T01:27:37;1.23;;;0.60;;
35977;SDS011;22056;0.000;0.000;2023-01-13T01:30:03;1.70;;;0.50;;
35977;SDS011;22056;0.000;0.000;2023-01-13T01:32:29;1.02;;;0.50;;
35977;SDS011;22056;0.000;0.000;2023-01-13T01:34:58;1.38;;;0.60;;
35977;SDS011;22056;0.000;0.000;2023-01-13T01:37:24;1.95;;;0.80;;
35977;SDS011;22056;0.000;0.000;2023-01-13T01:39:50;1.42;;;0.57;;
35977;SDS011;22056;0.000;0.000;2023-01-13T01:42:17;1.60;;;0.63;;
35977;SDS011;22056;0.000;0.000;2023-01-13T01:45:35;1.60;;;0.70;;
35977;SDS011;22056;0.000;0.000;2023-01-13T01:48:00;1.85;;;0.68;;
35977;SDS011;22056;0.000;0.000;2023-01-13T01:50:27;1.27;;;0.55;;
35977;SDS011;22056;0.000;0.000;2023-01-13T01:53:14;0.90;;;0.50;;
35977;SDS011;22056;0.000;0.000;2023-01-13T01:55:43;1.95;;;0.60;;
35977;SDS011;22056;0.000;0.000;2023-01-13T01:58:20;3.58;;;0.77;;
35977;SDS011;22056;0.000;0.000;2023-01-13T02:00:47;2.17;;;0.50;;
35977;SDS011;22056;0.000;0.000;2023-01-13T02:03:14;1.83;;;0.60;;
35977;SDS011;22056;0.000;0.000;2023-01-13T02:05:41;2.88;;;0.55;;
35977;SDS011;22056;0.000;0.000;2023-01-13T02:08:07;1.35;;;0.68;;
35977;SDS011;22056;0.000;0.000;2023-01-13T02:10:34;2.53;;;0.80;;
35977;SDS011;22056;0.000;0.000;2023-01-13T02:13:02;1.95;;;0.60;;
35977;SDS011;22056;0.000;0.000;2023-01-13T02:28:56;3.63;;;0.70;;
35977;SDS011;22056;0.000;0.000;2023-01-13T02:31:32;2.28;;;0.70;;
35977;SDS011;22056;0.000;0.000;2023-01-13T02:34:07;1.20;;;0.60;;
35977;SDS011;22056;0.000;0.000;2023-01-13T02:41:53;0.70;;;0.40;;
35977;SDS011;22056;0.000;0.000;2023-01-13T02:45:03;2.25;;;0.85;;
35977;SDS011;22056;0.000;0.000;2023-01-13T02:47:26;1.25;;;0.50;;
35977;SDS011;22056;0.000;0.000;2023-01-13T02:49:54;1.45;;;0.50;;
35977;SDS011;22056;0.000;0.000;2023-01-13T02:52:27;1.13;;;0.60;;
35977;SDS011;22056;0.000;0.000;2023-01-13T02:54:56;1.08;;;0.60;;
35977;SDS011;22056;0.000;0.000;2023-01-13T02:57:23;1.15;;;0.60;;
35977;SDS011;22056;0.000;0.000;2023-01-13T02:59:51;1.42;;;0.55;;
35977;SDS011;22056;0.000;0.000;2023-01-13T03:02:18;1.00;;;0.50;;
35977;SDS011;22056;0.000;0.000;2023-01-13T03:04:50;1.33;;;0.60;;
35977;SDS011;22056;0.000;0.000;2023-01-13T03:07:33;1.33;;;0.70;;
35977;SDS011;22056;0.000;0.000;2023-01-13T03:10:09;1.48;;;0.50;;
35977;SDS011;22056;0.000;0.000;2023-01-13T03:12:39;0.93;;;0.50;;
35977;SDS011;22056;0.000;0.000;2023-01-13T03:20:06;1.10;;;0.60;;
35977;SDS011;22056;0.000;0.000;2023-01-13T03:27:47;1.83;;;0.60;;
35977;SDS011;22056;0.000;0.000;2023-01-13T03:33:17;1.77;;;0.80;;
35977;SDS011;22056;0.000;0.000;2023-01-13T03:35:47;1.13;;;0.60;;
35977;SDS011;22056;0.000;0.000;2023-01-13T03:38:28;1.02;;;0.63;;
35977;SDS011;22056;0.000;0.000;2023-01-13T03:40:56;1.58;;;0.55;;
35977;SDS011;22056;0.000;0.000;2023-01-13T03:43:27;1.35;;;0.50;;
35977;SDS011;22056;0.000;0.000;2023-01-13T03:46:17;1.05;;;0.65;;
35977;SDS011;22056;0.000;0.000;2023-01-13T03:48:45;2.00;;;0.70;;
35977;SDS011;22056;0.000;0.000;2023-01-13T03:51:15;1.13;;;0.60;;
35977;SDS011;22056;0.000;0.000;2023-01-13T03:53:44;1.38;;;0.60;;
35977;SDS011;22056;0.000;0.000;2023-01-13T03:56:22;2.53;;;0.70;;
35977;SDS011;22056;0.000;0.000;2023-01-13T03:58:50;0.73;;;0.50;;
35977;SDS011;22056;0.000;0.000;2023-01-13T04:01:22;1.35;;;0.70;;
35977;SDS011;22056;0.000;0.000;2023-01-13T04:07:00;1.23;;;0.50;;
35977;SDS011;22056;0.000;0.000;2023-01-13T04:09:17;2.45;;;1.00;;
35977;SDS011;22056;0.000;0.000;2023-01-13T04:11:47;1.10;;;0.57;;
35977;SDS011;22056;0.000;0.000;2023-01-13T04:14:14;1.17;;;0.60;;
35977;SDS011;22056;0.000;0.000;2023-01-13T04:16:42;1.38;;;0.68;;
35977;SDS011;22056;0.000;0.000;2023-01-13T04:19:12;1.23;;;0.63;;
35977;SDS011;22056;0.000;0.000;2023-01-13T04:21:38;1.13;;;0.60;;
35977;SDS011;22056;0.000;0.000;2023-01-13T04:24:04;3.20;;;0.63;;
35977;SDS011;22056;0.000;0.000;2023-01-13T04:26:30;1.33;;;0.60;;
35977;SDS011;22056;0.000;0.000;2023-01-13T04:28:56;1.35;;;0.60;;
35977;SDS011;22056;0.000;0.000;2023-01-13T04:31:23;0.80;;;0.50;;
35977;SDS011;22056;0.000;0.000;2023-01-13T04:33:49;1.63;;;0.63;;
35977;SDS011;22056;0.000;0.000;2023-01-13T04:36:15;1.25;;;0.73;;
35977;SDS011;22056;0.000;0.000;2023-01-13T04:38:42;1.52;;;0.68;;
35977;SDS011;22056;0.000;0.000;2023-01-13T04:41:08;1.92;;;0.80;;
35977;SDS011;22056;0.000;0.000;2023-01-13T04:43:34;1.10;;;0.63;;
35977;SDS011;22056;0.000;0.000;2023-01-13T04:46:00;1.75;;;0.70;;
35977;SDS011;22056;0.000;0.000;2023-01-13T04:48:26;0.95;;;0.60;;
35977;SDS011;22056;0.000;0.000;2023-01-13T04:50:53;1.48;;;0.40;;
35977;SDS011;22056;0.000;0.000;2023-01-13T04:53:19;0.95;;;0.50;;
35977;SDS011;22056;0.000;0.000;2023-01-13T04:55:45;1.33;;;0.60;;
35977;SDS011;22056;0.000;0.000;2023-01-13T04:58:13;1.45;;;0.70;;
35977;SDS011;22056;0.000;0.000;2023-01-13T05:00:40;0.98;;;0.52;;
35977;SDS011;22056;0.000;0.000;2023-01-13T05:03:06;0.73;;;0.50;;
35977;SDS011;22056;0.000;0.000;2023-01-13T05:05:32;2.00;;;0.60;;
35977;SDS011;22056;0.000;0.000;2023-01-13T05:07:59;1.00;;;0.50;;
35977;SDS011;22056;0.000;0.000;2023-01-13T05:10:25;3.22;;;0.70;;
35977;SDS011;22056;0.000;0.000;2023-01-13T05:12:51;1.52;;;0.70;;
35977;SDS011;22056;0.000;0.000;2023-01-13T05:15:38;2.47;;;0.80;;
35977;SDS011;22056;0.000;0.000;2023-01-13T05:18:22;1.15;;;0.60;;
35977;SDS011;22056;0.000;0.000;2023-01-13T05:20:48;1.10;;;0.50;;
35977;SDS011;22056;0.000;0.000;2023-01-13T05:23:14;1.40;;;0.55;;
35977;SDS011;22056;0.000;0.000;2023-01-13T05:25:59;1.33;;;0.60;;
35977;SDS011;22056;0.000;0.000;2023-01-13T05:28:29;1.25;;;0.57;;
35977;SDS011;22056;0.000;0.000;2023-01-13T05:30:56;1.27;;;0.60;;
35977;SDS011;22056;0.000;0.000;2023-01-13T05:33:22;0.82;;;0.57;;
35977;SDS011;22056;0.000;0.000;2023-01-13T05:35:48;1.48;;;0.63;;
35977;SDS011;22056;0.000;0.000;2023-01-13T05:38:15;1.27;;;0.60;;
35977;SDS011;22056;0.000;0.000;2023-01-13T05:40:42;2.67;;;0.80;;
35977;SDS011;22056;0.000;0.000;2023-01-13T05:43:27;2.83;;;0.70;;
35977;SDS011;22056;0.000;0.000;2023-01-13T05:45:57;1.88;;;0.93;;
35977;SDS011;22056;0.000;0.000;2023-01-13T05:48:28;0.98;;;0.60;;
35977;SDS011;22056;0.000;0.000;2023-01-13T05:50:55;1.55;;;0.82;;
35977;SDS011;22056;0.000;0.000;2023-01-13T05:53:22;1.88;;;0.88;;
35977;SDS011;22056;0.000;0.000;2023-01-13T05:55:48;2.05;;;0.75;;
35977;SDS011;22056;0.000;0.000;2023-01-13T05:58:15;1.55;;;0.80;;
35977;SDS011;22056;0.000;0.000;2023-01-13T06:00:42;1.00;;;0.60;;
35977;SDS011;22056;0.000;0.000;2023-01-13T06:03:08;1.08;;;0.70;;
35977;SDS011;22056;0.000;0.000;2023-01-13T06:05:35;1.20;;;0.90;;
35977;SDS011;22056;0.000;0.000;2023-01-13T06:08:02;1.90;;;0.70;;
35977;SDS011;22056;0.000;0.000;2023-01-13T06:10:29;1.35;;;0.68;;
35977;SDS011;22056;0.000;0.000;2023-01-13T06:12:55;2.78;;;0.70;;
35977;SDS011;22056;0.000;0.000;2023-01-13T06:15:22;3.20;;;0.80;;
35977;SDS011;22056;0.000;0.000;2023-01-13T06:17:48;2.65;;;0.95;;
35977;SDS011;22056;0.000;0.000;2023-01-13T06:20:14;1.17;;;0.85;;
35977;SDS011;22056;0.000;0.000;2023-01-13T06:22:42;3.47;;;0.90;;
35977;SDS011;22056;0.000;0.000;2023-01-13T06:25:20;3.22;;;0.70;;
35977;SDS011;22056;0.000;0.000;2023-01-13T06:27:48;2.85;;;0.98;;
35977;SDS011;22056;0.000;0.000;2023-01-13T06:30:14;2.47;;;0.90;;
35977;SDS011;22056;0.000;0.000;2023-01-13T06:32:42;2.25;;;0.63;;
35977;SDS011;22056;0.000;0.000;2023-01-13T06:35:10;3.22;;;0.95;;
35977;SDS011;22056;0.000;0.000;2023-01-13T06:37:38;4.03;;;0.80;;
35977;SDS011;22056;0.000;0.000;2023-01-13T06:40:05;2.83;;;0.90;;
35977;SDS011;22056;0.000;0.000;2023-01-13T06:42:32;3.13;;;0.80;;
35977;SDS011;22056;0.000;0.000;2023-01-13T06:45:18;2.78;;;0.80;;
35977;SDS011;22056;0.000;0.000;2023-01-13T06:47:44;1.55;;;0.50;;
35977;SDS011;22056;0.000;0.000;2023-01-13T06:50:10;2.53;;;0.75;;
35977;SDS011;22056;0.000;0.000;2023-01-13T06:52:36;1.25;;;0.70;;
35977;SDS011;22056;0.000;0.000;2023-01-13T06:55:02;2.03;;;0.75;;
35977;SDS011;22056;0.000;0.000;2023-01-13T06:57:29;3.33;;;0.70;;
35977;SDS011;22056;0.000;0.000;2023-01-13T06:59:55;3.70;;;0.93;;
35977;SDS011;22056;0.000;0.000;2023-01-13T07:02:21;2.53;;;0.80;;
35977;SDS011;22056;0.000;0.000;2023-01-13T07:04:47;2.70;;;0.82;;
35977;SDS011;22056;0.000;0.000;2023-01-13T07:07:13;5.60;;;1.25;;
35977;SDS011;22056;0.000;0.000;2023-01-13T07:09:39;2.90;;;1.10;;
35977;SDS011;22056;0.000;0.000;2023-01-13T07:12:06;2.92;;;0.90;;
35977;SDS011;22056;0.000;0.000;2023-01-13T07:14:32;3.42;;;0.73;;
35977;SDS011;22056;0.000;0.000;2023-01-13T07:17:17;3.25;;;0.90;;
35977;SDS011;22056;0.000;0.000;2023-01-13T07:19:49;1.70;;;0.73;;
35977;SDS011;22056;0.000;0.000;2023-01-13T07:22:15;3.45;;;0.85;;
35977;SDS011;22056;0.000;0.000;2023-01-13T07:24:42;4.97;;;1.10;;
35977;SDS011;22056;0.000;0.000;2023-01-13T07:27:08;2.67;;;0.82;;
35977;SDS011;22056;0.000;0.000;2023-01-13T07:29:34;3.65;;;0.98;;
35977;SDS011;22056;0.000;0.000;2023-01-13T07:32:01;3.15;;;1.08;;
35977;SDS011;22056;0.000;0.000;2023-01-13T07:34:27;2.80;;;0.90;;
35977;SDS011;22056;0.000;0.000;2023-01-13T07:36:53;3.47;;;0.98;;
35977;SDS011;22056;0.000;0.000;2023-01-13T07:39:19;2.30;;;0.80;;
35977;SDS011;22056;0.000;0.000;2023-01-13T07:41:46;2.88;;;0.90;;
35977;SDS011;22056;0.000;0.000;2023-01-13T07:44:31;2.90;;;0.90;;
35977;SDS011;22056;0.000;0.000;2023-01-13T07:46:57;2.30;;;0.88;;
35977;SDS011;22056;0.000;0.000;2023-01-13T07:49:23;2.97;;;1.00;;
35977;SDS011;22056;0.000;0.000;2023-01-13T07:51:49;1.33;;;0.70;;
35977;SDS011;22056;0.000;0.000;2023-01-13T07:54:15;2.50;;;0.75;;
35977;SDS011;22056;0.000;0.000;2023-01-13T07:56:41;3.35;;;0.82;;
35977;SDS011;22056;0.000;0.000;2023-01-13T07:59:07;3.38;;;0.88;;
35977;SDS011;22056;0.000;0.000;2023-01-13T08:01:36;3.10;;;1.00;;
35977;SDS011;22056;0.000;0.000;2023-01-13T08:04:02;1.38;;;0.68;;
35977;SDS011;22056;0.000;0.000;2023-01-13T08:06:28;3.42;;;0.80;;
35977;SDS011;22056;0.000;0.000;2023-01-13T08:08:54;1.33;;;0.75;;
35977;SDS011;22056;0.000;0.000;2023-01-13T08:11:20;3.50;;;0.68;;
35977;SDS011;22056;0.000;0.000;2023-01-13T08:13:47;2.08;;;0.82;;
35977;SDS011;22056;0.000;0.000;2023-01-13T08:16:13;4.57;;;0.80;;
35977;SDS011;22056;0.000;0.000;2023-01-13T08:18:40;2.03;;;0.70;;
35977;SDS011;22056;0.000;0.000;2023-01-13T08:21:07;3.28;;;0.90;;
35977;SDS011;22056;0.000;0.000;2023-01-13T08:23:34;3.10;;;1.00;;
35977;SDS011;22056;0.000;0.000;2023-01-13T08:26:00;4.20;;;0.90;;
35977;SDS011;22056;0.000;0.000;2023-01-13T08:28:27;2.85;;;1.25;;
35977;SDS011;22056;0.000;0.000;2023-01-13T08:30:53;3.55;;;0.88;;
35977;SDS011;22056;0.000;0.000;2023-01-13T08:33:20;3.53;;;1.08;;
35977;SDS011;22056;0.000;0.000;2023-01-13T08:35:46;2.65;;;0.90;;
35977;SDS011;22056;0.000;0.000;2023-01-13T08:38:13;3.33;;;0.90;;
35977;SDS011;22056;0.000;0.000;2023-01-13T08:40:39;1.13;;;0.65;;
35977;SDS011;22056;0.000;0.000;2023-01-13T08:43:05;2.00;;;0.85;;
35977;SDS011;22056;0.000;0.000;2023-01-13T08:45:31;3.65;;;1.00;;
35977;SDS011;22056;0.000;0.000;2023-01-13T08:47:58;5.45;;;1.13;;
35977;SDS011;22056;0.000;0.000;2023-01-13T08:50:24;2.65;;;0.70;;
35977;SDS011;22056;0.000;0.000;2023-01-13T08:52:50;2.15;;;1.08;;
35977;SDS011;22056;0.000;0.000;2023-01-13T08:55:17;4.97;;;1.00;;
35977;SDS011;22056;0.000;0.000;2023-01-13T08:57:43;3.22;;;0.77;;
35977;SDS011;22056;0.000;0.000;2023-01-13T09:00:09;2.25;;;0.95;;
35977;SDS011;22056;0.000;0.000;2023-01-13T09:02:36;4.43;;;0.98;;
35977;SDS011;22056;0.000;0.000;2023-01-13T09:05:03;6.50;;;1.35;;
35977;SDS011;22056;0.000;0.000;2023-01-13T09:07:31;10.23;;;1.30;;
35977;SDS011;22056;0.000;0.000;2023-01-13T09:09:57;3.40;;;1.08;;
35977;SDS011;22056;0.000;0.000;2023-01-13T09:12:24;3.78;;;1.13;;
35977;SDS011;22056;0.000;0.000;2023-01-13T09:15:09;3.92;;;1.02;;
35977;SDS011;22056;0.000;0.000;2023-01-13T09:17:35;3.80;;;1.23;;
35977;SDS011;22056;0.000;0.000;2023-01-13T09:20:03;3.00;;;0.90;;
35977;SDS011;22056;0.000;0.000;2023-01-13T09:22:29;2.83;;;0.90;;
35977;SDS011;22056;0.000;0.000;2023-01-13T09:24:55;2.70;;;0.93;;
35977;SDS011;22056;0.000;0.000;2023-01-13T09:27:22;3.97;;;0.85;;
35977;SDS011;22056;0.000;0.000;2023-01-13T09:29:48;3.58;;;0.90;;
35977;SDS011;22056;0.000;0.000;2023-01-13T09:32:14;4.57;;;1.00;;
35977;SDS011;22056;0.000;0.000;2023-01-13T09:34:41;4.32;;;1.30;;
35977;SDS011;22056;0.000;0.000;2023-01-13T09:37:30;3.60;;;1.00;;
35977;SDS011;22056;0.000;0.000;2023-01-13T09:39:58;3.80;;;1.23;;
35977;SDS011;22056;0.000;0.000;2023-01-13T09:45:13;3.53;;;1.20;;
35977;SDS011;22056;0.000;0.000;2023-01-13T09:50:32;4.10;;;1.13;;
35977;SDS011;22056;0.000;0.000;2023-01-13T09:53:04;5.10;;;1.10;;
35977;SDS011;22056;0.000;0.000;2023-01-13T09:55:35;3.85;;;0.80;;
35977;SDS011;22056;0.000;0.000;2023-01-13T09:58:02;5.53;;;1.08;;
35977;SDS011;22056;0.000;0.000;2023-01-13T10:00:35;5.95;;;1.25;;
35977;SDS011;22056;0.000;0.000;2023-01-13T10:10:44;4.75;;;1.05;;
35977;SDS011;22056;0.000;0.000;2023-01-13T10:21:19;3.95;;;1.10;;
35977;SDS011;22056;0.000;0.000;2023-01-13T10:23:52;3.78;;;1.20;;
35977;SDS011;22056;0.000;0.000;2023-01-13T10:28:58;11.50;;;1.92;;
35977;SDS011;22056;0.000;0.000;2023-01-13T10:31:24;8.23;;;1.88;;
35977;SDS011;22056;0.000;0.000;2023-01-13T10:34:00;6.55;;;1.60;;
35977;SDS011;22056;0.000;0.000;2023-01-13T10:36:28;7.05;;;1.88;;
35977;SDS011;22056;0.000;0.000;2023-01-13T10:38:56;6.15;;;1.20;;
35977;SDS011;22056;0.000;0.000;2023-01-13T10:41:31;8.00;;;1.15;;
35977;SDS011;22056;0.000;0.000;2023-01-13T10:44:05;2.97;;;1.00;;
35977;SDS011;22056;0.000;0.000;2023-01-13T10:46:32;5.28;;;1.00;;
35977;SDS011;22056;0.000;0.000;2023-01-13T10:49:00;4.38;;;1.00;;
35977;SDS011;22056;0.000;0.000;2023-01-13T10:51:30;6.13;;;1.25;;
35977;SDS011;22056;0.000;0.000;2023-01-13T10:56:40;2.90;;;0.88;;
35977;SDS011;22056;0.000;0.000;2023-01-13T11:01:50;5.07;;;1.13;;
35977;SDS011;22056;0.000;0.000;2023-01-13T11:06:57;2.60;;;0.90;;
35977;SDS011;22056;0.000;0.000;2023-01-13T11:09:25;3.75;;;0.90;;
35977;SDS011;22056;0.000;0.000;2023-01-13T11:11:51;4.75;;;1.10;;
35977;SDS011;22056;0.000;0.000;2023-01-13T11:17:09;4.00;;;1.05;;
35977;SDS011;22056;0.000;0.000;2023-01-13T11:19:45;4.80;;;1.27;;
35977;SDS011;22056;0.000;0.000;2023-01-13T11:22:16;2.58;;;0.95;;
35977;SDS011;22056;0.000;0.000;2023-01-13T11:24:48;3.37;;;0.87;;
35977;SDS011;22056;0.000;0.000;2023-01-13T11:32:27;2.88;;;0.77;;
35977;SDS011;22056;0.000;0.000;2023-01-13T11:34:59;2.83;;;0.90;;
35977;SDS011;22056;0.000;0.000;2023-01-13T11:37:27;3.42;;;1.15;;
35977;SDS011;22056;0.000;0.000;2023-01-13T11:42:39;2.20;;;1.00;;
35977;SDS011;22056;0.000;0.000;2023-01-13T11:47:37;4.18;;;1.38;;
35977;SDS011;22056;0.000;0.000;2023-01-13T11:50:05;5.22;;;1.10;;
35977;SDS011;22056;0.000;0.000;2023-01-13T11:52:45;3.60;;;0.95;;
35977;SDS011;22056;0.000;0.000;2023-01-13T12:02:46;4.88;;;1.02;;
35977;SDS011;22056;0.000;0.000;2023-01-13T12:25:47;4.43;;;0.80;;
35977;SDS011;22056;0.000;0.000;2023-01-13T12:28:25;7.85;;;1.17;;
35977;SDS011;22056;0.000;0.000;2023-01-13T12:31:00;3.03;;;1.10;;
35977;SDS011;22056;0.000;0.000;2023-01-13T12:38:35;4.30;;;0.98;;
35977;SDS011;22056;0.000;0.000;2023-01-13T12:41:09;5.05;;;1.00;;
35977;SDS011;22056;0.000;0.000;2023-01-13T12:43:37;3.45;;;0.82;;
35977;SDS011;22056;0.000;0.000;2023-01-13T12:53:49;3.47;;;1.23;;
35977;SDS011;22056;0.000;0.000;2023-01-13T12:58:46;2.80;;;0.90;;
35977;SDS011;22056;0.000;0.000;2023-01-13T13:01:13;2.92;;;1.00;;
35977;SDS011;22056;0.000;0.000;2023-01-13T13:03:40;5.07;;;1.17;;
35977;SDS011;22056;0.000;0.000;2023-01-13T13:06:08;4.15;;;0.93;;
35977;SDS011;22056;0.000;0.000;2023-01-13T13:08:45;5.75;;;1.17;;
35977;SDS011;22056;0.000;0.000;2023-01-13T13:11:19;2.85;;;0.90;;
35977;SDS011;22056;0.000;0.000;2023-01-13T13:14:12;3.72;;;1.10;;
35977;SDS011;22056;0.000;0.000;2023-01-13T13:16:48;3.13;;;1.00;;
35977;SDS011;22056;0.000;0.000;2023-01-13T13:24:30;2.03;;;0.80;;
35977;SDS011;22056;0.000;0.000;2023-01-13T13:26:56;3.75;;;1.10;;
35977;SDS011;22056;0.000;0.000;2023-01-13T13:32:10;2.90;;;1.00;;
35977;SDS011;22056;0.000;0.000;2023-01-13T13:39:53;3.13;;;1.00;;
35977;SDS011;22056;0.000;0.000;2023-01-13T13:42:42;4.65;;;1.58;;
35977;SDS011;22056;0.000;0.000;2023-01-13T13:45:27;4.13;;;1.00;;
35977;SDS011;22056;0.000;0.000;2023-01-13T13:48:20;4.18;;;1.10;;
35977;SDS011;22056;0.000;0.000;2023-01-13T13:50:47;3.05;;;1.20;;
35977;SDS011;22056;0.000;0.000;2023-01-13T13:53:14;6.45;;;1.35;;
35977;SDS011;22056;0.000;0.000;2023-01-13T13:55:50;7.28;;;1.00;;
35977;SDS011;22056;0.000;0.000;2023-01-13T13:58:17;4.70;;;1.10;;
35977;SDS011;22056;0.000;0.000;2023-01-13T14:00:45;3.67;;;0.93;;
35977;SDS011;22056;0.000;0.000;2023-01-13T14:05:55;5.95;;;1.10;;
35977;SDS011;22056;0.000;0.000;2023-01-13T14:08:22;6.13;;;1.10;;
35977;SDS011;22056;0.000;0.000;2023-01-13T14:10:48;12.02;;;1.40;;
35977;SDS011;22056;0.000;0.000;2023-01-13T14:13:23;8.40;;;1.45;;
35977;SDS011;22056;0.000;0.000;2023-01-13T14:18:22;10.38;;;1.90;;
35977;SDS011;22056;0.000;0.000;2023-01-13T14:21:02;5.72;;;1.20;;
35977;SDS011;22056;0.000;0.000;2023-01-13T14:23:30;7.45;;;1.38;;
35977;SDS011;22056;0.000;0.000;2023-01-13T14:26:00;9.10;;;1.83;;
35977;SDS011;22056;0.000;0.000;2023-01-13T14:28:28;5.32;;;1.17;;
35977;SDS011;22056;0.000;0.000;2023-01-13T14:30:56;5.32;;;1.20;;
35977;SDS011;22056;0.000;0.000;2023-01-13T14:33:30;5.00;;;1.20;;
35977;SDS011;22056;0.000;0.000;2023-01-13T14:36:12;4.10;;;1.35;;
35977;SDS011;22056;0.000;0.000;2023-01-13T14:38:39;3.28;;;1.20;;
35977;SDS011;22056;0.000;0.000;2023-01-13T14:41:09;6.40;;;1.10;;
35977;SDS011;22056;0.000;0.000;2023-01-13T14:43:40;3.95;;;1.30;;
35977;SDS011;22056;0.000;0.000;2023-01-13T14:46:07;6.90;;;1.35;;
35977;SDS011;22056;0.000;0.000;2023-01-13T14:48:33;5.00;;;1.40;;
35977;SDS011;22056;0.000;0.000;2023-01-13T14:51:07;4.38;;;0.90;;
35977;SDS011;22056;0.000;0.000;2023-01-13T14:58:48;4.63;;;1.30;;
35977;SDS011;22056;0.000;0.000;2023-01-13T15:01:36;4.60;;;1.23;;
35977;SDS011;22056;0.000;0.000;2023-01-13T15:04:20;3.70;;;0.73;;
35977;SDS011;22056;0.000;0.000;2023-01-13T15:06:50;8.05;;;1.25;;
35977;SDS011;22056;0.000;0.000;2023-01-13T15:09:28;4.82;;;1.35;;
35977;SDS011;22056;0.000;0.000;2023-01-13T15:11:56;6.18;;;1.17;;
35977;SDS011;22056;0.000;0.000;2023-01-13T15:14:28;5.82;;;1.13;;
35977;SDS011;22056;0.000;0.000;2023-01-13T15:16:56;2.83;;;1.02;;
35977;SDS011;22056;0.000;0.000;2023-01-13T15:19:22;4.00;;;0.95;;
35977;SDS011;22056;0.000;0.000;2023-01-13T15:21:49;3.70;;;0.98;;
35977;SDS011;22056;0.000;0.000;2023-01-13T15:24:15;2.55;;;1.00;;
35977;SDS011;22056;0.000;0.000;2023-01-13T15:26:41;3.22;;;1.20;;
35977;SDS011;22056;0.000;0.000;2023-01-13T15:29:08;7.20;;;1.20;;
35977;SDS011;22056;0.000;0.000;2023-01-13T15:31:39;4.22;;;1.10;;
35977;SDS011;22056;0.000;0.000;2023-01-13T15:34:05;2.30;;;0.93;;
35977;SDS011;22056;0.000;0.000;2023-01-13T15:36:31;5.90;;;0.95;;
35977;SDS011;22056;0.000;0.000;2023-01-13T15:39:01;2.80;;;0.88;;
35977;SDS011;22056;0.000;0.000;2023-01-13T15:41:27;5.32;;;1.25;;
35977;SDS011;22056;0.000;0.000;2023-01-13T15:44:13;4.30;;;0.98;;
35977;SDS011;22056;0.000;0.000;2023-01-13T15:46:58;4.07;;;1.20;;
35977;SDS011;22056;0.000;0.000;2023-01-13T15:49:27;5.85;;;1.55;;
35977;SDS011;22056;0.000;0.000;2023-01-13T15:51:59;4.38;;;0.90;;
35977;SDS011;22056;0.000;0.000;2023-01-13T15:54:26;3.78;;;0.95;;
35977;SDS011;22056;0.000;0.000;2023-01-13T15:56:52;4.25;;;1.00;;
35977;SDS011;22056;0.000;0.000;2023-01-13T15:59:20;4.45;;;1.23;;
35977;SDS011;22056;0.000;0.000;2023-01-13T16:01:46;5.78;;;1.05;;
35977;SDS011;22056;0.000;0.000;2023-01-13T16:04:12;5.72;;;1.20;;
35977;SDS011;22056;0.000;0.000;2023-01-13T16:06:38;5.78;;;1.20;;
35977;SDS011;22056;0.000;0.000;2023-01-13T16:09:05;4.20;;;1.02;;
35977;SDS011;22056;0.000;0.000;2023-01-13T16:11:31;5.30;;;1.17;;
35977;SDS011;22056;0.000;0.000;2023-01-13T16:13:57;6.25;;;1.23;;
35977;SDS011;22056;0.000;0.000;2023-01-13T16:16:25;5.22;;;1.15;;
35977;SDS011;22056;0.000;0.000;2023-01-13T16:18:51;3.95;;;0.93;;
35977;SDS011;22056;0.000;0.000;2023-01-13T16:21:18;3.30;;;1.08;;
35977;SDS011;22056;0.000;0.000;2023-01-13T16:23:45;3.70;;;1.15;;
35977;SDS011;22056;0.000;0.000;2023-01-13T16:26:33;3.67;;;0.85;;
35977;SDS011;22056;0.000;0.000;2023-01-13T16:29:00;3.00;;;1.08;;
35977;SDS011;22056;0.000;0.000;2023-01-13T16:31:27;2.95;;;1.02;;
35977;SDS011;22056;0.000;0.000;2023-01-13T16:33:56;3.40;;;0.90;;
35977;SDS011;22056;0.000;0.000;2023-01-13T16:36:23;4.47;;;1.00;;
35977;SDS011;22056;0.000;0.000;2023-01-13T16:38:50;4.43;;;1.08;;
35977;SDS011;22056;0.000;0.000;2023-01-13T16:41:16;5.72;;;1.05;;
35977;SDS011;22056;0.000;0.000;2023-01-13T16:43:43;3.15;;;1.05;;
35977;SDS011;22056;0.000;0.000;2023-01-13T16:46:26;4.95;;;1.23;;
35977;SDS011;22056;0.000;0.000;2023-01-13T16:48:53;4.80;;;1.23;;
35977;SDS011;22056;0.000;0.000;2023-01-13T16:51:20;6.72;;;1.20;;
35977;SDS011;22056;0.000;0.000;2023-01-13T16:53:46;3.75;;;1.23;;
35977;SDS011;22056;0.000;0.000;2023-01-13T16:56:25;4.40;;;1.20;;
35977;SDS011;22056;0.000;0.000;2023-01-13T16:58:52;3.10;;;0.82;;
35977;SDS011;22056;0.000;0.000;2023-01-13T17:03:45;5.80;;;1.27;;
35977;SDS011;22056;0.000;0.000;2023-01-13T17:06:13;6.53;;;1.13;;
35977;SDS011;22056;0.000;0.000;2023-01-13T17:08:40;5.70;;;1.30;;
35977;SDS011;22056;0.000;0.000;2023-01-13T17:11:07;4.95;;;1.25;;
35977;SDS011;22056;0.000;0.000;2023-01-13T17:13:33;5.03;;;1.08;;
35977;SDS011;22056;0.000;0.000;2023-01-13T17:15:59;5.80;;;1.00;;
35977;SDS011;22056;0.000;0.000;2023-01-13T17:18:25;5.28;;;1.10;;
35977;SDS011;22056;0.000;0.000;2023-01-13T17:20:51;2.78;;;1.23;;
35977;SDS011;22056;0.000;0.000;2023-01-13T17:23:17;2.30;;;0.98;;
35977;SDS011;22056;0.000;0.000;2023-01-13T17:25:43;6.80;;;1.00;;
35977;SDS011;22056;0.000;0.000;2023-01-13T17:28:09;4.60;;;1.08;;
35977;SDS011;22056;0.000;0.000;2023-01-13T17:30:36;3.10;;;1.17;;
35977;SDS011;22056;0.000;0.000;2023-01-13T17:33:02;3.80;;;1.10;;
35977;SDS011;22056;0.000;0.000;2023-01-13T17:35:28;4.20;;;1.00;;
35977;SDS011;22056;0.000;0.000;2023-01-13T17:37:54;5.70;;;1.20;;
35977;SDS011;22056;0.000;0.000;2023-01-13T17:40:20;3.75;;;1.10;;
35977;SDS011;22056;0.000;0.000;2023-01-13T17:42:46;4.07;;;1.40;;